createdAt,value
2022-08-31T00:08:16.804Z,0
2022-08-31T00:19:05.528Z,0
2022-08-31T00:24:28.040Z,0
2022-08-31T00:29:50.527Z,0
2022-08-31T00:35:16.479Z,0
2022-08-31T00:40:45.737Z,0
2022-08-31T00:46:09.231Z,0
2022-08-31T00:51:34.619Z,0
2022-08-31T00:56:57.095Z,0
2022-08-31T01:02:20.064Z,0
2022-08-31T01:07:53.116Z,0
2022-08-31T01:13:15.644Z,0
2022-08-31T01:18:38.360Z,0
2022-08-31T01:24:00.893Z,0
2022-08-31T01:29:26.491Z,0
2022-08-31T01:34:49.179Z,0
2022-08-31T01:40:12.372Z,0
2022-08-31T01:45:34.991Z,0
2022-08-31T01:51:07.302Z,0
2022-08-31T01:56:35.545Z,0
2022-08-31T02:01:58.900Z,0
2022-08-31T02:12:46.829Z,0
2022-08-31T02:18:32.723Z,0
2022-08-31T02:23:58.452Z,0
2022-08-31T02:35:07.162Z,0
2022-08-31T02:40:30.242Z,0
2022-08-31T02:45:54.071Z,0
2022-08-31T02:51:17.163Z,0
2022-08-31T02:56:39.495Z,0
2022-08-31T03:02:02.659Z,0
2022-08-31T03:07:30.772Z,0
2022-08-31T03:12:53.492Z,0
2022-08-31T03:18:16.122Z,0
2022-08-31T03:23:48.183Z,0
2022-08-31T03:29:12.725Z,0
2022-08-31T03:34:36.475Z,0
2022-08-31T03:39:59.288Z,0
2022-08-31T03:45:39.887Z,0
2022-08-31T03:51:02.382Z,0
2022-08-31T03:56:25.062Z,0
2022-08-31T04:01:47.979Z,0
2022-08-31T04:07:15.750Z,0
2022-08-31T04:12:39.596Z,0
2022-08-31T04:18:30.522Z,0
2022-08-31T04:23:53.457Z,0
2022-08-31T04:29:16.049Z,0
2022-08-31T04:34:38.863Z,0
2022-08-31T04:40:02.401Z,1
2022-08-31T04:45:25.071Z,9
2022-08-31T04:50:47.651Z,8
2022-08-31T04:56:10.151Z,14
2022-08-31T05:01:43.847Z,25
2022-08-31T05:07:06.586Z,30.2
2022-08-31T05:12:31.818Z,34.7
2022-08-31T05:28:39.351Z,42.3
2022-08-31T05:34:08.341Z,44.6
2022-08-31T05:39:31.085Z,48.7
2022-08-31T05:44:53.642Z,41.7
2022-08-31T05:50:16.140Z,40
2022-08-31T05:55:38.693Z,38.9
2022-08-31T06:01:06.740Z,38.9
2022-08-31T06:06:33.643Z,35
2022-08-31T06:11:56.375Z,38.3
2022-08-31T06:17:21.214Z,47.7
2022-08-31T06:22:52.548Z,58.3
2022-08-31T06:28:15.141Z,73.3
2022-08-31T06:33:37.627Z,79.6
2022-08-31T06:38:59.971Z,88.3
2022-08-31T06:44:22.256Z,108.1
2022-08-31T06:49:46.720Z,121.1
2022-08-31T06:55:15.277Z,127.8
2022-08-31T07:06:03.840Z,125.5
2022-08-31T07:11:26.430Z,121.5
2022-08-31T07:16:59.289Z,127.7
2022-08-31T07:22:22.208Z,140.4
2022-08-31T07:27:44.726Z,149.1
2022-08-31T07:33:07.443Z,149.8
2022-08-31T07:38:30.486Z,140.1
2022-08-31T07:44:03.476Z,161.5
2022-08-31T07:49:26.118Z,173.5
2022-08-31T08:00:02.873Z,201.2
2022-08-31T08:05:29.160Z,227.3
2022-08-31T08:10:53.630Z,249.4
2022-08-31T08:16:25.861Z,278.8
2022-08-31T08:21:54.581Z,305.7
2022-08-31T08:27:17.346Z,385.7
2022-08-31T08:32:39.977Z,425.6
2022-08-31T08:38:29.534Z,505.2
2022-08-31T08:43:57.697Z,553.1
2022-08-31T08:49:21.728Z,604.4
2022-08-31T08:54:44.682Z,649.7
2022-08-31T09:00:07.228Z,759.6
2022-08-31T09:27:57.541Z,1088.3
2022-08-31T09:33:21.215Z,1263.4
2022-08-31T09:38:54.268Z,1662.7
2022-08-31T09:44:19.549Z,2117.8
2022-08-31T09:49:42.106Z,1615.8
2022-08-31T09:55:04.968Z,1753.3
2022-08-31T10:00:27.392Z,1841.7
2022-08-31T10:05:59.018Z,1449.6
2022-08-31T10:11:21.529Z,1343.7
2022-08-31T10:16:44.084Z,1404.6
2022-08-31T10:22:06.672Z,1434.4
2022-08-31T10:27:29.078Z,1333.1
2022-08-31T10:32:52.476Z,1282.6
2022-08-31T10:38:20.724Z,1261.7
2022-08-31T10:43:42.958Z,1137.9
2022-08-31T10:49:05.173Z,1168.3
2022-08-31T10:54:27.710Z,1336.2
2022-08-31T11:05:13.637Z,1527
2022-08-31T11:10:36.223Z,1560.8
2022-08-31T11:21:25.283Z,1988.2
2022-08-31T11:26:47.973Z,2077.7
2022-08-31T11:32:10.857Z,2309.6
2022-08-31T11:37:33.760Z,2931.9
2022-08-31T11:43:00.260Z,4465.7
2022-08-31T11:48:24.990Z,3533.4
2022-08-31T11:54:07.045Z,5064.7
2022-08-31T12:05:01.037Z,4257.4
2022-08-31T12:15:56.152Z,2514
2022-08-31T12:21:19.042Z,3730.7
2022-08-31T12:43:01.563Z,3736.2
2022-08-31T12:48:23.976Z,3538
2022-08-31T12:53:47.076Z,3612.8
2022-08-31T12:59:10.406Z,3592.9
2022-08-31T13:04:36.526Z,3522.8
2022-08-31T13:09:59.303Z,3673.1
2022-08-31T13:15:22.735Z,3328.8
2022-08-31T13:20:45.278Z,2494.6
2022-08-31T13:26:07.243Z,3407.9
2022-08-31T13:31:29.856Z,3385.4
2022-08-31T13:36:54.369Z,3454.7
2022-08-31T13:42:17.914Z,3482.6
2022-08-31T13:48:07.607Z,3383.7
2022-08-31T13:53:30.523Z,3355
2022-08-31T14:04:28.482Z,2989.3
2022-08-31T14:09:52.097Z,3154.3
2022-08-31T14:15:14.913Z,3180.9
2022-08-31T14:20:39.345Z,2771.3
2022-08-31T14:26:02.500Z,2815.2
2022-08-31T14:31:25.649Z,2850.1
2022-08-31T14:36:48.298Z,2677.6
2022-08-31T14:42:10.740Z,2458.1
2022-08-31T14:47:33.473Z,2495.5
2022-08-31T14:52:55.894Z,532.2
2022-08-31T14:58:17.907Z,451.1
2022-08-31T15:03:39.826Z,405.2
2022-08-31T15:09:07.461Z,382.2
2022-08-31T15:14:29.879Z,361.8
2022-08-31T15:19:52.116Z,329.9
2022-08-31T15:25:14.519Z,328.8
2022-08-31T15:30:36.881Z,302.7
2022-08-31T15:35:59.303Z,302.3
2022-08-31T15:57:38.003Z,344.9
2022-08-31T16:03:17.939Z,246
2022-08-31T16:08:40.713Z,228.4
2022-08-31T16:14:03.181Z,224.2
2022-08-31T16:19:36.272Z,218.4
2022-08-31T16:24:58.769Z,207.9
2022-08-31T16:30:22.107Z,201.1
2022-08-31T16:35:45.041Z,192.1
2022-08-31T16:41:15.148Z,181
2022-08-31T16:46:42.025Z,164.1
2022-08-31T16:52:04.601Z,153.5
2022-08-31T16:57:27.475Z,141.1
2022-08-31T17:02:50.347Z,130.7
2022-08-31T17:08:13.143Z,134.6
2022-08-31T17:13:42.915Z,124.7
2022-08-31T17:19:05.674Z,115.3
2022-08-31T17:24:28.013Z,108.5
2022-08-31T17:29:50.844Z,107.6
2022-08-31T17:35:15.723Z,91.5
2022-08-31T17:46:02.568Z,63.4
2022-08-31T17:51:25.238Z,55.9
2022-08-31T17:56:48.453Z,50.4
2022-08-31T18:02:11.250Z,41.7
2022-08-31T18:07:33.652Z,36.6
2022-08-31T18:18:23.233Z,27.1
2022-08-31T18:23:46.528Z,22
2022-08-31T18:29:09.210Z,12
2022-08-31T18:34:31.574Z,5
2022-08-31T18:39:54.236Z,0
2022-08-31T18:45:17.124Z,0
2022-08-31T18:50:43.129Z,0
2022-08-31T18:56:05.663Z,0
2022-08-31T19:01:34.558Z,0
2022-08-31T19:06:59.952Z,0
2022-08-31T19:17:47.593Z,0
2022-08-31T19:23:10.440Z,0
2022-08-31T19:28:33.153Z,0
2022-08-31T19:39:23.471Z,0
2022-08-31T19:45:25.393Z,0
2022-08-31T19:51:03.762Z,0
2022-08-31T19:56:26.400Z,0
2022-08-31T20:01:49.436Z,0
2022-08-31T20:07:12.203Z,0
2022-08-31T20:12:34.845Z,0
2022-08-31T20:17:57.421Z,0
2022-08-31T20:28:23.394Z,0
2022-08-31T20:33:46.343Z,0
2022-08-31T20:39:08.958Z,0
2022-08-31T20:44:34.195Z,0
2022-08-31T20:49:57.204Z,0
2022-08-31T20:55:19.961Z,0
2022-08-31T21:06:04.877Z,0
2022-08-31T21:11:27.481Z,0
2022-08-31T21:16:50.202Z,0
2022-08-31T21:22:12.807Z,0
2022-08-31T21:27:35.570Z,0
2022-08-31T21:32:58.765Z,0
2022-08-31T21:38:21.530Z,0
2022-08-31T21:43:44.036Z,0
2022-08-31T21:49:06.671Z,0
2022-08-31T21:54:29.681Z,0
2022-08-31T21:59:52.124Z,0
2022-08-31T22:10:16.943Z,0
2022-08-31T22:15:39.954Z,0
2022-08-31T22:21:03.312Z,0
2022-08-31T22:26:25.944Z,0
2022-08-31T22:31:48.631Z,0
2022-08-31T22:42:34.170Z,0
2022-08-31T22:48:13.097Z,0
2022-08-31T22:58:37.779Z,0
2022-08-31T23:04:01.070Z,0
2022-08-31T23:09:23.946Z,0
2022-08-31T23:14:47.175Z,0
2022-08-31T23:20:09.709Z,0
2022-08-31T23:25:31.947Z,0
2022-08-31T23:30:54.874Z,0
2022-08-31T23:36:17.058Z,0
2022-08-31T23:41:39.787Z,0
2022-08-31T23:47:05.161Z,0
2022-08-31T23:52:35.098Z,0
2022-08-31T23:57:57.678Z,0
